PWSweather.com
Personal Weather Stations
Station Observations
ARECO747
Argentina , San Antonio ArecoAR Bs.As

Argentina San Antonio ArecoAR Bs.As

Lat: -34.24447275818, Lon: -59.47654187679

Elevation: 102

Station Type: InformaciĆ³n generada con nuevo Microchip Ethernet conectado a estaciĆ³n WH1081

http://www.meteostar.com.ar

High Low Average
Temperature 85.6°F29.8°C 58.8°F14.9°C 72.7°F22.6°C
Dew Point 58.1°F14.5°C 48.0°F8.9°C 54.0°F12.2°C
Winds 17.4 mph 28.0 kmh 1.6 mph 2.6 kmh 6.0 mph S9.7 kmh S
Wind Gusts 27.3 mph43.9 kmh 3.8 mph6.1 kmh 11.0 mph17.7 kmh
Humidity 72% 33% 54%
Pressure 29.85 in1010.8 mb 29.63 in1003.4 mb -
Precipitation 0.00 in0.0 mm - -
Hour Temp Dew Point Humidity Winds Wind Gusts Pressure Precip Precip Rate Daily Precip Total
12:01 AM 62.2°F16.8°C 49.5°F9.7°C 63% 2.2 mph NE3.5 kmh NE 3.8 mph6.1 kmh 29.85 in1010.8 mb 0.00 in0.0 mm 0.00 in0.0 mm 0.00 in0.0 mm
12:06 AM 62.2°F16.8°C 49.1°F9.5°C 62% 3.1 mph E5.0 kmh E 4.5 mph7.2 kmh 29.84 in1010.5 mb 0.00 in0.0 mm 0.00 in0.0 mm 0.00 in0.0 mm
12:11 AM 61.9°F16.6°C 48.7°F9.3°C 62% 4.5 mph ENE7.2 kmh ENE 5.4 mph8.7 kmh 29.85 in1010.8 mb 0.00 in0.0 mm 0.00 in0.0 mm 0.00 in0.0 mm
12:16 AM 61.9°F16.6°C 48.7°F9.3°C 62% 3.8 mph E6.1 kmh E 6.0 mph9.7 kmh 29.84 in1010.5 mb 0.00 in0.0 mm 0.00 in0.0 mm 0.00 in0.0 mm
12:22 AM 61.7°F16.5°C 48.9°F9.4°C 63% 3.1 mph NE5.0 kmh NE 6.0 mph9.7 kmh 29.84 in1010.5 mb 0.00 in0.0 mm 0.00 in0.0 mm 0.00 in0.0 mm
12:27 AM 61.3°F16.3°C 48.6°F9.2°C 63% 3.8 mph NE6.1 kmh NE 5.4 mph8.7 kmh 29.84 in1010.5 mb 0.00 in0.0 mm 0.00 in0.0 mm 0.00 in0.0 mm
12:32 AM 61.2°F16.2°C 48.4°F9.1°C 63% 3.1 mph E5.0 kmh E 5.4 mph8.7 kmh 29.84 in1010.5 mb 0.00 in0.0 mm 0.00 in0.0 mm 0.00 in0.0 mm
12:37 AM 61.2°F16.2°C 48.4°F9.1°C 63% 3.1 mph NE5.0 kmh NE 4.5 mph7.2 kmh 29.84 in1010.5 mb 0.00 in0.0 mm 0.00 in0.0 mm 0.00 in0.0 mm
12:42 AM 61.2°F16.2°C 48.4°F9.1°C 63% 3.1 mph E5.0 kmh E 5.4 mph8.7 kmh 29.85 in1010.8 mb 0.00 in0.0 mm 0.00 in0.0 mm 0.00 in0.0 mm
12:47 AM 61.2°F16.2°C 48.4°F9.1°C 63% 3.8 mph NE6.1 kmh NE 6.0 mph9.7 kmh 29.85 in1010.8 mb 0.00 in0.0 mm 0.00 in0.0 mm 0.00 in0.0 mm
12:53 AM 61.2°F16.2°C 48.4°F9.1°C 63% 3.1 mph E5.0 kmh E 6.0 mph9.7 kmh 29.84 in1010.5 mb 0.00 in0.0 mm 0.00 in0.0 mm 0.00 in0.0 mm
12:58 AM 61.2°F16.2°C 48.4°F9.1°C 63% 3.1 mph E5.0 kmh E 4.5 mph7.2 kmh 29.84 in1010.5 mb 0.00 in0.0 mm 0.00 in0.0 mm 0.00 in0.0 mm
01:03 AM 61.2°F16.2°C 48.4°F9.1°C 63% 3.1 mph NE5.0 kmh NE 6.0 mph9.7 kmh 29.84 in1010.5 mb 0.00 in0.0 mm 0.00 in0.0 mm 0.00 in0.0 mm
01:08 AM 61.2°F16.2°C 48.0°F8.9°C 62% 3.8 mph NE6.1 kmh NE 6.9 mph11.1 kmh 29.84 in1010.5 mb 0.00 in0.0 mm 0.00 in0.0 mm 0.00 in0.0 mm
01:13 AM 61.2°F16.2°C 48.0°F8.9°C 62% 3.1 mph NE5.0 kmh NE 6.9 mph11.1 kmh 29.84 in1010.5 mb 0.00 in0.0 mm 0.00 in0.0 mm 0.00 in0.0 mm
01:18 AM 61.2°F16.2°C 48.0°F8.9°C 62% 3.8 mph E6.1 kmh E 6.9 mph11.1 kmh 29.83 in1010.2 mb 0.00 in0.0 mm 0.00 in0.0 mm 0.00 in0.0 mm
01:24 AM 61.2°F16.2°C 48.0°F8.9°C 62% 4.5 mph E7.2 kmh E 7.6 mph12.2 kmh 29.83 in1010.2 mb 0.00 in0.0 mm 0.00 in0.0 mm 0.00 in0.0 mm
01:29 AM 61.0°F16.1°C 48.4°F9.1°C 63% 4.5 mph ENE7.2 kmh ENE 7.6 mph12.2 kmh 29.83 in1010.2 mb 0.00 in0.0 mm 0.00 in0.0 mm 0.00 in0.0 mm
01:34 AM 61.0°F16.1°C 48.4°F9.1°C 63% 3.8 mph NE6.1 kmh NE 5.4 mph8.7 kmh 29.83 in1010.2 mb 0.00 in0.0 mm 0.00 in0.0 mm 0.00 in0.0 mm
01:39 AM 60.6°F15.9°C 48.4°F9.1°C 64% 2.2 mph E3.5 kmh E 5.4 mph8.7 kmh 29.83 in1010.2 mb 0.00 in0.0 mm 0.00 in0.0 mm 0.00 in0.0 mm
01:44 AM 60.4°F15.8°C 48.2°F9.0°C 64% 3.1 mph NE5.0 kmh NE 4.5 mph7.2 kmh 29.83 in1010.2 mb 0.00 in0.0 mm 0.00 in0.0 mm 0.00 in0.0 mm
01:50 AM 60.4°F15.8°C 48.2°F9.0°C 64% 2.2 mph NE3.5 kmh NE 4.5 mph7.2 kmh 29.83 in1010.2 mb 0.00 in0.0 mm 0.00 in0.0 mm 0.00 in0.0 mm
01:55 AM 60.3°F15.7°C 48.4°F9.1°C 65% 2.2 mph NE3.5 kmh NE 5.4 mph8.7 kmh 29.83 in1010.2 mb 0.00 in0.0 mm 0.00 in0.0 mm 0.00 in0.0 mm
02:00 AM 60.4°F15.8°C 48.6°F9.2°C 65% 4.5 mph NE7.2 kmh NE 5.4 mph8.7 kmh 29.83 in1010.2 mb 0.00 in0.0 mm 0.00 in0.0 mm 0.00 in0.0 mm
02:05 AM 60.3°F15.7°C 48.4°F9.1°C 65% 3.1 mph NE5.0 kmh NE 5.4 mph8.7 kmh 29.83 in1010.2 mb 0.00 in0.0 mm 0.00 in0.0 mm 0.00 in0.0 mm
02:10 AM 60.1°F15.6°C 48.2°F9.0°C 65% 3.1 mph E5.0 kmh E 5.4 mph8.7 kmh 29.83 in1010.2 mb 0.00 in0.0 mm 0.00 in0.0 mm 0.00 in0.0 mm
02:15 AM 60.1°F15.6°C 48.7°F9.3°C 66% 2.2 mph NE3.5 kmh NE 5.4 mph8.7 kmh 29.82 in1009.8 mb 0.00 in0.0 mm 0.00 in0.0 mm 0.00 in0.0 mm
02:21 AM 59.9°F15.5°C 48.6°F9.2°C 66% 3.1 mph 5.0 kmh 6.0 mph9.7 kmh 29.83 in1010.2 mb 0.00 in0.0 mm 0.00 in0.0 mm 0.00 in0.0 mm
02:26 AM 59.7°F15.4°C 48.4°F9.1°C 66% 3.8 mph NE6.1 kmh NE 5.4 mph8.7 kmh 29.82 in1009.8 mb 0.00 in0.0 mm 0.00 in0.0 mm 0.00 in0.0 mm
02:31 AM 59.5°F15.3°C 48.2°F9.0°C 66% 4.5 mph 7.2 kmh 6.9 mph11.1 kmh 29.82 in1009.8 mb 0.00 in0.0 mm 0.00 in0.0 mm 0.00 in0.0 mm
02:36 AM 59.5°F15.3°C 48.6°F9.2°C 67% 4.5 mph NE7.2 kmh NE 6.9 mph11.1 kmh 29.82 in1009.8 mb 0.00 in0.0 mm 0.00 in0.0 mm 0.00 in0.0 mm
02:41 AM 59.5°F15.3°C 48.6°F9.2°C 67% 3.1 mph E5.0 kmh E 6.9 mph11.1 kmh 29.82 in1009.8 mb 0.00 in0.0 mm 0.00 in0.0 mm 0.00 in0.0 mm
02:46 AM 59.4°F15.2°C 48.4°F9.1°C 67% 2.2 mph NE3.5 kmh NE 5.4 mph8.7 kmh 29.82 in1009.8 mb 0.00 in0.0 mm 0.00 in0.0 mm 0.00 in0.0 mm
02:52 AM 59.4°F15.2°C 48.4°F9.1°C 67% 3.8 mph NE6.1 kmh NE 6.9 mph11.1 kmh 29.82 in1009.8 mb 0.00 in0.0 mm 0.00 in0.0 mm 0.00 in0.0 mm
02:57 AM 59.4°F15.2°C 48.7°F9.3°C 68% 2.2 mph 3.5 kmh 5.4 mph8.7 kmh 29.81 in1009.5 mb 0.00 in0.0 mm 0.00 in0.0 mm 0.00 in0.0 mm
03:02 AM 59.2°F15.1°C 48.6°F9.2°C 68% 3.8 mph E6.1 kmh E 5.4 mph8.7 kmh 29.81 in1009.5 mb 0.00 in0.0 mm 0.00 in0.0 mm 0.00 in0.0 mm
03:07 AM 59.2°F15.1°C 48.6°F9.2°C 68% 3.1 mph NE5.0 kmh NE 5.4 mph8.7 kmh 29.81 in1009.5 mb 0.00 in0.0 mm 0.00 in0.0 mm 0.00 in0.0 mm
03:12 AM 59.4°F15.2°C 48.7°F9.3°C 68% 2.2 mph ENE3.5 kmh ENE 4.5 mph7.2 kmh 29.82 in1009.8 mb 0.00 in0.0 mm 0.00 in0.0 mm 0.00 in0.0 mm
03:17 AM 59.2°F15.1°C 48.6°F9.2°C 68% 3.1 mph NE5.0 kmh NE 5.4 mph8.7 kmh 29.81 in1009.5 mb 0.00 in0.0 mm 0.00 in0.0 mm 0.00 in0.0 mm
03:23 AM 59.4°F15.2°C 48.7°F9.3°C 68% 3.8 mph E6.1 kmh E 6.0 mph9.7 kmh 29.81 in1009.5 mb 0.00 in0.0 mm 0.00 in0.0 mm 0.00 in0.0 mm
03:28 AM 59.2°F15.1°C 48.6°F9.2°C 68% 3.1 mph NE5.0 kmh NE 5.4 mph8.7 kmh 29.80 in1009.1 mb 0.00 in0.0 mm 0.00 in0.0 mm 0.00 in0.0 mm
03:33 AM 59.2°F15.1°C 49.1°F9.5°C 69% 6.9 mph NE11.1 kmh NE 8.3 mph13.4 kmh 29.80 in1009.1 mb 0.00 in0.0 mm 0.00 in0.0 mm 0.00 in0.0 mm
03:38 AM 59.2°F15.1°C 49.1°F9.5°C 69% 2.2 mph NE3.5 kmh NE 8.3 mph13.4 kmh 29.80 in1009.1 mb 0.00 in0.0 mm 0.00 in0.0 mm 0.00 in0.0 mm
03:43 AM 59.2°F15.1°C 49.1°F9.5°C 69% 2.2 mph NE3.5 kmh NE 6.0 mph9.7 kmh 29.80 in1009.1 mb 0.00 in0.0 mm 0.00 in0.0 mm 0.00 in0.0 mm
03:48 AM 59.2°F15.1°C 49.1°F9.5°C 69% 2.2 mph NE3.5 kmh NE 7.6 mph12.2 kmh 29.80 in1009.1 mb 0.00 in0.0 mm 0.00 in0.0 mm 0.00 in0.0 mm
03:54 AM 59.2°F15.1°C 49.1°F9.5°C 69% 3.1 mph NE5.0 kmh NE 5.4 mph8.7 kmh 29.80 in1009.1 mb 0.00 in0.0 mm 0.00 in0.0 mm 0.00 in0.0 mm
03:59 AM 59.2°F15.1°C 49.1°F9.5°C 69% 3.1 mph 5.0 kmh 5.4 mph8.7 kmh 29.80 in1009.1 mb 0.00 in0.0 mm 0.00 in0.0 mm 0.00 in0.0 mm
04:04 AM 59.2°F15.1°C 49.1°F9.5°C 69% 3.1 mph 5.0 kmh 6.9 mph11.1 kmh 29.80 in1009.1 mb 0.00 in0.0 mm 0.00 in0.0 mm 0.00 in0.0 mm
04:09 AM 59.2°F15.1°C 49.1°F9.5°C 69% 2.2 mph NNW3.5 kmh NNW 5.4 mph8.7 kmh 29.80 in1009.1 mb 0.00 in0.0 mm 0.00 in0.0 mm 0.00 in0.0 mm
04:14 AM 59.2°F15.1°C 49.5°F9.7°C 70% 2.2 mph E3.5 kmh E 3.8 mph6.1 kmh 29.79 in1008.8 mb 0.00 in0.0 mm 0.00 in0.0 mm 0.00 in0.0 mm
04:19 AM 59.2°F15.1°C 49.5°F9.7°C 70% 3.1 mph NNE5.0 kmh NNE 5.4 mph8.7 kmh 29.79 in1008.8 mb 0.00 in0.0 mm 0.00 in0.0 mm 0.00 in0.0 mm
04:25 AM 59.0°F15.0°C 49.3°F9.6°C 70% 3.1 mph NE5.0 kmh NE 4.5 mph7.2 kmh 29.79 in1008.8 mb 0.00 in0.0 mm 0.00 in0.0 mm 0.00 in0.0 mm
04:30 AM 59.0°F15.0°C 49.3°F9.6°C 70% 2.2 mph NE3.5 kmh NE 4.5 mph7.2 kmh 29.79 in1008.8 mb 0.00 in0.0 mm 0.00 in0.0 mm 0.00 in0.0 mm
04:35 AM 58.8°F14.9°C 49.5°F9.7°C 71% 2.2 mph 3.5 kmh 5.4 mph8.7 kmh 29.79 in1008.8 mb 0.00 in0.0 mm 0.00 in0.0 mm 0.00 in0.0 mm
04:40 AM 58.8°F14.9°C 49.5°F9.7°C 71% 2.2 mph SSE3.5 kmh SSE 4.5 mph7.2 kmh 29.79 in1008.8 mb 0.00 in0.0 mm 0.00 in0.0 mm 0.00 in0.0 mm
04:45 AM 58.8°F14.9°C 49.5°F9.7°C 71% 3.1 mph 5.0 kmh 3.8 mph6.1 kmh 29.79 in1008.8 mb 0.00 in0.0 mm 0.00 in0.0 mm 0.00 in0.0 mm
04:50 AM 58.8°F14.9°C 49.5°F9.7°C 71% 2.2 mph E3.5 kmh E 4.5 mph7.2 kmh 29.79 in1008.8 mb 0.00 in0.0 mm 0.00 in0.0 mm 0.00 in0.0 mm
04:56 AM 58.8°F14.9°C 49.8°F9.9°C 72% 2.2 mph E3.5 kmh E 4.5 mph7.2 kmh 29.79 in1008.8 mb 0.00 in0.0 mm 0.00 in0.0 mm 0.00 in0.0 mm
05:01 AM 58.8°F14.9°C 49.8°F9.9°C 72% 2.2 mph 3.5 kmh 4.5 mph7.2 kmh 29.80 in1009.1 mb 0.00 in0.0 mm 0.00 in0.0 mm 0.00 in0.0 mm
05:06 AM 58.8°F14.9°C 49.8°F9.9°C 72% 1.6 mph NE2.6 kmh NE 4.5 mph7.2 kmh 29.79 in1008.8 mb 0.00 in0.0 mm 0.00 in0.0 mm 0.00 in0.0 mm
05:11 AM 58.8°F14.9°C 49.8°F9.9°C 72% 2.2 mph E3.5 kmh E 3.8 mph6.1 kmh 29.79 in1008.8 mb 0.00 in0.0 mm 0.00 in0.0 mm 0.00 in0.0 mm
05:16 AM 59.0°F15.0°C 49.6°F9.8°C 71% 1.6 mph NE2.6 kmh NE 5.4 mph8.7 kmh 29.80 in1009.1 mb 0.00 in0.0 mm 0.00 in0.0 mm 0.00 in0.0 mm
05:21 AM 59.0°F15.0°C 49.6°F9.8°C 71% 3.1 mph NE5.0 kmh NE 5.4 mph8.7 kmh 29.79 in1008.8 mb 0.00 in0.0 mm 0.00 in0.0 mm 0.00 in0.0 mm
05:27 AM 59.0°F15.0°C 49.6°F9.8°C 71% 1.6 mph 2.6 kmh 6.0 mph9.7 kmh 29.80 in1009.1 mb 0.00 in0.0 mm 0.00 in0.0 mm 0.00 in0.0 mm
05:32 AM 59.0°F15.0°C 49.6°F9.8°C 71% 2.2 mph ENE3.5 kmh ENE 6.9 mph11.1 kmh 29.80 in1009.1 mb 0.00 in0.0 mm 0.00 in0.0 mm 0.00 in0.0 mm
05:37 AM 59.0°F15.0°C 49.6°F9.8°C 71% 2.2 mph 3.5 kmh 4.5 mph7.2 kmh 29.79 in1008.8 mb 0.00 in0.0 mm 0.00 in0.0 mm 0.00 in0.0 mm
05:42 AM 59.0°F15.0°C 49.6°F9.8°C 71% 1.6 mph NW2.6 kmh NW 5.4 mph8.7 kmh 29.79 in1008.8 mb 0.00 in0.0 mm 0.00 in0.0 mm 0.00 in0.0 mm
05:47 AM 59.0°F15.0°C 49.6°F9.8°C 71% 2.2 mph NE3.5 kmh NE 4.5 mph7.2 kmh 29.80 in1009.1 mb 0.00 in0.0 mm 0.00 in0.0 mm 0.00 in0.0 mm
05:52 AM 59.0°F15.0°C 49.6°F9.8°C 71% 3.8 mph 6.1 kmh 5.4 mph8.7 kmh 29.80 in1009.1 mb 0.00 in0.0 mm 0.00 in0.0 mm 0.00 in0.0 mm
05:58 AM 59.0°F15.0°C 49.6°F9.8°C 71% 2.2 mph 3.5 kmh 5.4 mph8.7 kmh 29.80 in1009.1 mb 0.00 in0.0 mm 0.00 in0.0 mm 0.00 in0.0 mm
06:03 AM 59.0°F15.0°C 49.6°F9.8°C 71% 2.2 mph NE3.5 kmh NE 3.8 mph6.1 kmh 29.80 in1009.1 mb 0.00 in0.0 mm 0.00 in0.0 mm 0.00 in0.0 mm
06:08 AM 59.0°F15.0°C 49.6°F9.8°C 71% 3.8 mph NE6.1 kmh NE 5.4 mph8.7 kmh 29.80 in1009.1 mb 0.00 in0.0 mm 0.00 in0.0 mm 0.00 in0.0 mm
06:13 AM 59.0°F15.0°C 50.0°F10.0°C 72% 3.1 mph NE5.0 kmh NE 4.5 mph7.2 kmh 29.79 in1008.8 mb 0.00 in0.0 mm 0.00 in0.0 mm 0.00 in0.0 mm
06:18 AM 59.0°F15.0°C 50.0°F10.0°C 72% 3.8 mph 6.1 kmh 4.5 mph7.2 kmh 29.80 in1009.1 mb 0.00 in0.0 mm 0.00 in0.0 mm 0.00 in0.0 mm
06:23 AM 59.0°F15.0°C 50.0°F10.0°C 72% 3.1 mph NW5.0 kmh NW 6.0 mph9.7 kmh 29.80 in1009.1 mb 0.00 in0.0 mm 0.00 in0.0 mm 0.00 in0.0 mm
06:29 AM 59.0°F15.0°C 50.0°F10.0°C 72% 3.8 mph NE6.1 kmh NE 6.0 mph9.7 kmh 29.80 in1009.1 mb 0.00 in0.0 mm 0.00 in0.0 mm 0.00 in0.0 mm
06:34 AM 59.2°F15.1°C 50.2°F10.1°C 72% 3.1 mph 5.0 kmh 5.4 mph8.7 kmh 29.80 in1009.1 mb 0.00 in0.0 mm 0.00 in0.0 mm 0.00 in0.0 mm
06:39 AM 59.2°F15.1°C 50.2°F10.1°C 72% 3.8 mph 6.1 kmh 6.9 mph11.1 kmh 29.80 in1009.1 mb 0.00 in0.0 mm 0.00 in0.0 mm 0.00 in0.0 mm
06:44 AM 59.4°F15.2°C 50.4°F10.2°C 72% 3.1 mph 5.0 kmh 6.9 mph11.1 kmh 29.80 in1009.1 mb 0.00 in0.0 mm 0.00 in0.0 mm 0.00 in0.0 mm
06:49 AM 59.4°F15.2°C 50.4°F10.2°C 72% 3.1 mph NE5.0 kmh NE 5.4 mph8.7 kmh 29.80 in1009.1 mb 0.00 in0.0 mm 0.00 in0.0 mm 0.00 in0.0 mm
06:55 AM 59.5°F15.3°C 50.5°F10.3°C 72% 2.2 mph NE3.5 kmh NE 6.0 mph9.7 kmh 29.80 in1009.1 mb 0.00 in0.0 mm 0.00 in0.0 mm 0.00 in0.0 mm
07:00 AM 60.1°F15.6°C 51.1°F10.6°C 72% 3.1 mph NE5.0 kmh NE 5.4 mph8.7 kmh 29.80 in1009.1 mb 0.00 in0.0 mm 0.00 in0.0 mm 0.00 in0.0 mm
07:05 AM 60.6°F15.9°C 51.1°F10.6°C 71% 3.1 mph 5.0 kmh 5.4 mph8.7 kmh 29.80 in1009.1 mb 0.00 in0.0 mm 0.00 in0.0 mm 0.00 in0.0 mm
07:10 AM 61.2°F16.2°C 51.3°F10.7°C 70% 2.2 mph 3.5 kmh 4.5 mph7.2 kmh 29.80 in1009.1 mb 0.00 in0.0 mm 0.00 in0.0 mm 0.00 in0.0 mm
07:15 AM 61.9°F16.6°C 51.6°F10.9°C 69% 1.6 mph NE2.6 kmh NE 5.4 mph8.7 kmh 29.80 in1009.1 mb 0.00 in0.0 mm 0.00 in0.0 mm 0.00 in0.0 mm
07:20 AM 62.1°F16.7°C 51.4°F10.8°C 68% 1.6 mph 2.6 kmh 5.4 mph8.7 kmh 29.80 in1009.1 mb 0.00 in0.0 mm 0.00 in0.0 mm 0.00 in0.0 mm
07:26 AM 62.8°F17.1°C 51.6°F10.9°C 67% 3.1 mph NW5.0 kmh NW 6.9 mph11.1 kmh 29.80 in1009.1 mb 0.00 in0.0 mm 0.00 in0.0 mm 0.00 in0.0 mm
07:31 AM 62.8°F17.1°C 51.6°F10.9°C 67% 3.8 mph NW6.1 kmh NW 6.0 mph9.7 kmh 29.80 in1009.1 mb 0.00 in0.0 mm 0.00 in0.0 mm 0.00 in0.0 mm
07:36 AM 63.9°F17.7°C 52.3°F11.3°C 66% 3.1 mph 5.0 kmh 6.0 mph9.7 kmh 29.80 in1009.1 mb 0.00 in0.0 mm 0.00 in0.0 mm 0.00 in0.0 mm
07:41 AM 64.6°F18.1°C 52.2°F11.2°C 64% 5.4 mph NE8.7 kmh NE 6.9 mph11.1 kmh 29.80 in1009.1 mb 0.00 in0.0 mm 0.00 in0.0 mm 0.00 in0.0 mm
07:46 AM 65.3°F18.5°C 52.9°F11.6°C 64% 4.5 mph 7.2 kmh 9.8 mph15.8 kmh 29.80 in1009.1 mb 0.00 in0.0 mm 0.00 in0.0 mm 0.00 in0.0 mm
07:51 AM 65.1°F18.4°C 52.7°F11.5°C 64% 3.1 mph NNE5.0 kmh NNE 9.8 mph15.8 kmh 29.80 in1009.1 mb 0.00 in0.0 mm 0.00 in0.0 mm 0.00 in0.0 mm
07:57 AM 66.0°F18.9°C 53.1°F11.7°C 63% 3.1 mph NE5.0 kmh NE 7.6 mph12.2 kmh 29.79 in1008.8 mb 0.00 in0.0 mm 0.00 in0.0 mm 0.00 in0.0 mm
08:02 AM 66.4°F19.1°C 52.9°F11.6°C 62% 4.5 mph NNE7.2 kmh NNE 7.6 mph12.2 kmh 29.79 in1008.8 mb 0.00 in0.0 mm 0.00 in0.0 mm 0.00 in0.0 mm
08:07 AM 67.1°F19.5°C 53.2°F11.8°C 61% 7.6 mph 12.2 kmh 9.8 mph15.8 kmh 29.80 in1009.1 mb 0.00 in0.0 mm 0.00 in0.0 mm 0.00 in0.0 mm
08:12 AM 67.8°F19.9°C 54.0°F12.2°C 61% 5.4 mph NE8.7 kmh NE 9.8 mph15.8 kmh 29.79 in1008.8 mb 0.00 in0.0 mm 0.00 in0.0 mm 0.00 in0.0 mm
08:17 AM 68.5°F20.3°C 54.1°F12.3°C 60% 5.4 mph NE8.7 kmh NE 9.2 mph14.8 kmh 29.79 in1008.8 mb 0.00 in0.0 mm 0.00 in0.0 mm 0.00 in0.0 mm
08:22 AM 69.4°F20.8°C 54.5°F12.5°C 59% 3.8 mph NE6.1 kmh NE 9.2 mph14.8 kmh 29.79 in1008.8 mb 0.00 in0.0 mm 0.00 in0.0 mm 0.00 in0.0 mm
08:28 AM 70.0°F21.1°C 54.5°F12.5°C 58% 3.1 mph 5.0 kmh 7.6 mph12.2 kmh 29.79 in1008.8 mb 0.00 in0.0 mm 0.00 in0.0 mm 0.00 in0.0 mm
08:33 AM 70.9°F21.6°C 54.9°F12.7°C 57% 5.4 mph WNW8.7 kmh WNW 7.6 mph12.2 kmh 29.79 in1008.8 mb 0.00 in0.0 mm 0.00 in0.0 mm 0.00 in0.0 mm
08:38 AM 71.1°F21.7°C 55.0°F12.8°C 57% 6.0 mph NE9.7 kmh NE 10.7 mph17.2 kmh 29.78 in1008.5 mb 0.00 in0.0 mm 0.00 in0.0 mm 0.00 in0.0 mm
08:43 AM 71.8°F22.1°C 54.7°F12.6°C 55% 6.9 mph NE11.1 kmh NE 10.7 mph17.2 kmh 29.78 in1008.5 mb 0.00 in0.0 mm 0.00 in0.0 mm 0.00 in0.0 mm
08:48 AM 72.1°F22.3°C 55.0°F12.8°C 55% 6.9 mph 11.1 kmh 10.7 mph17.2 kmh 29.79 in1008.8 mb 0.00 in0.0 mm 0.00 in0.0 mm 0.00 in0.0 mm
08:53 AM 72.5°F22.5°C 54.9°F12.7°C 54% 5.4 mph NW8.7 kmh NW 11.4 mph18.3 kmh 29.78 in1008.5 mb 0.00 in0.0 mm 0.00 in0.0 mm 0.00 in0.0 mm
08:59 AM 72.3°F22.4°C 55.2°F12.9°C 55% 3.1 mph NE5.0 kmh NE 9.8 mph15.8 kmh 29.79 in1008.8 mb 0.00 in0.0 mm 0.00 in0.0 mm 0.00 in0.0 mm
09:04 AM 73.0°F22.8°C 55.9°F13.3°C 55% 3.1 mph 5.0 kmh 9.2 mph14.8 kmh 29.79 in1008.8 mb 0.00 in0.0 mm 0.00 in0.0 mm 0.00 in0.0 mm
09:09 AM 73.9°F23.3°C 55.8°F13.2°C 53% 5.4 mph NW8.7 kmh NW 9.8 mph15.8 kmh 29.78 in1008.5 mb 0.00 in0.0 mm 0.00 in0.0 mm 0.00 in0.0 mm
09:14 AM 73.6°F23.1°C 55.4°F13.0°C 53% 2.2 mph 3.5 kmh 11.4 mph18.3 kmh 29.78 in1008.5 mb 0.00 in0.0 mm 0.00 in0.0 mm 0.00 in0.0 mm
09:19 AM 74.3°F23.5°C 56.1°F13.4°C 53% 5.4 mph NW8.7 kmh NW 13.6 mph21.9 kmh 29.78 in1008.5 mb 0.00 in0.0 mm 0.00 in0.0 mm 0.00 in0.0 mm
09:24 AM 74.1°F23.4°C 55.9°F13.3°C 53% 5.4 mph 8.7 kmh 9.2 mph14.8 kmh 29.78 in1008.5 mb 0.00 in0.0 mm 0.00 in0.0 mm 0.00 in0.0 mm
09:30 AM 73.2°F22.9°C 55.6°F13.1°C 54% 4.5 mph 7.2 kmh 10.7 mph17.2 kmh 29.78 in1008.5 mb 0.00 in0.0 mm 0.00 in0.0 mm 0.00 in0.0 mm
09:35 AM 73.0°F22.8°C 55.9°F13.3°C 55% 5.4 mph NW8.7 kmh NW 9.8 mph15.8 kmh 29.78 in1008.5 mb 0.00 in0.0 mm 0.00 in0.0 mm 0.00 in0.0 mm
09:40 AM 73.8°F23.2°C 56.1°F13.4°C 54% 3.8 mph 6.1 kmh 8.3 mph13.4 kmh 29.78 in1008.5 mb 0.00 in0.0 mm 0.00 in0.0 mm 0.00 in0.0 mm
09:45 AM 74.7°F23.7°C 56.8°F13.8°C 54% 3.8 mph NW6.1 kmh NW 12.1 mph19.5 kmh 29.78 in1008.5 mb 0.00 in0.0 mm 0.00 in0.0 mm 0.00 in0.0 mm
09:50 AM 76.3°F24.6°C 56.8°F13.8°C 51% 8.3 mph NW13.4 kmh NW 12.1 mph19.5 kmh 29.78 in1008.5 mb 0.00 in0.0 mm 0.00 in0.0 mm 0.00 in0.0 mm
09:55 AM 76.5°F24.7°C 57.0°F13.9°C 51% 4.5 mph NE7.2 kmh NE 12.1 mph19.5 kmh 29.78 in1008.5 mb 0.00 in0.0 mm 0.00 in0.0 mm 0.00 in0.0 mm
10:01 AM 77.0°F25.0°C 57.0°F13.9°C 50% 2.2 mph 3.5 kmh 12.1 mph19.5 kmh 29.78 in1008.5 mb 0.00 in0.0 mm 0.00 in0.0 mm 0.00 in0.0 mm
10:06 AM 76.5°F24.7°C 57.0°F13.9°C 51% 4.5 mph NW7.2 kmh NW 12.1 mph19.5 kmh 29.78 in1008.5 mb 0.00 in0.0 mm 0.00 in0.0 mm 0.00 in0.0 mm
10:11 AM 76.3°F24.6°C 56.3°F13.5°C 50% 7.6 mph NW12.2 kmh NW 12.1 mph19.5 kmh 29.78 in1008.5 mb 0.00 in0.0 mm 0.00 in0.0 mm 0.00 in0.0 mm
10:16 AM 76.6°F24.8°C 56.7°F13.7°C 50% 5.4 mph NW8.7 kmh NW 12.1 mph19.5 kmh 29.78 in1008.5 mb 0.00 in0.0 mm 0.00 in0.0 mm 0.00 in0.0 mm
10:21 AM 76.5°F24.7°C 57.0°F13.9°C 51% 4.5 mph NW7.2 kmh NW 10.7 mph17.2 kmh 29.78 in1008.5 mb 0.00 in0.0 mm 0.00 in0.0 mm 0.00 in0.0 mm
10:26 AM 76.8°F24.9°C 56.8°F13.8°C 50% 7.6 mph 12.2 kmh 13.0 mph20.9 kmh 29.78 in1008.5 mb 0.00 in0.0 mm 0.00 in0.0 mm 0.00 in0.0 mm
10:32 AM 77.4°F25.2°C 56.7°F13.7°C 49% 5.4 mph 8.7 kmh 12.1 mph19.5 kmh 29.78 in1008.5 mb 0.00 in0.0 mm 0.00 in0.0 mm 0.00 in0.0 mm
10:37 AM 79.0°F26.1°C 57.6°F14.2°C 48% 6.9 mph NW11.1 kmh NW 15.2 mph24.5 kmh 29.78 in1008.5 mb 0.00 in0.0 mm 0.00 in0.0 mm 0.00 in0.0 mm
10:47 AM 79.3°F26.3°C 57.9°F14.4°C 48% 6.0 mph NW9.7 kmh NW 13.0 mph20.9 kmh 29.78 in1008.5 mb 0.00 in0.0 mm 0.00 in0.0 mm 0.00 in0.0 mm
10:52 AM 80.4°F26.9°C 57.7°F14.3°C 46% 6.0 mph NW9.7 kmh NW 13.6 mph21.9 kmh 29.78 in1008.5 mb 0.00 in0.0 mm 0.00 in0.0 mm 0.00 in0.0 mm
10:57 AM 81.0°F27.2°C 57.6°F14.2°C 45% 9.2 mph NW14.8 kmh NW 15.2 mph24.5 kmh 29.79 in1008.8 mb 0.00 in0.0 mm 0.00 in0.0 mm 0.00 in0.0 mm
11:03 AM 80.6°F27.0°C 57.4°F14.1°C 45% 11.4 mph NE18.3 kmh NE 15.2 mph24.5 kmh 29.78 in1008.5 mb 0.00 in0.0 mm 0.00 in0.0 mm 0.00 in0.0 mm
11:08 AM 80.2°F26.8°C 56.3°F13.5°C 44% 9.8 mph NW15.8 kmh NW 19.0 mph30.6 kmh 29.78 in1008.5 mb 0.00 in0.0 mm 0.00 in0.0 mm 0.00 in0.0 mm
11:13 AM 80.1°F26.7°C 57.4°F14.1°C 46% 12.1 mph NW19.5 kmh NW 14.5 mph23.3 kmh 29.79 in1008.8 mb 0.00 in0.0 mm 0.00 in0.0 mm 0.00 in0.0 mm
11:18 AM 79.3°F26.3°C 56.1°F13.4°C 45% 8.3 mph NW13.4 kmh NW 17.4 mph28.0 kmh 29.78 in1008.5 mb 0.00 in0.0 mm 0.00 in0.0 mm 0.00 in0.0 mm
11:23 AM 79.7°F26.5°C 55.2°F12.9°C 43% 7.6 mph NW12.2 kmh NW 19.0 mph30.6 kmh 29.78 in1008.5 mb 0.00 in0.0 mm 0.00 in0.0 mm 0.00 in0.0 mm
11:28 AM 80.4°F26.9°C 56.5°F13.6°C 44% 9.2 mph 14.8 kmh 14.5 mph23.3 kmh 29.78 in1008.5 mb 0.00 in0.0 mm 0.00 in0.0 mm 0.00 in0.0 mm
11:34 AM 80.4°F26.9°C 56.5°F13.6°C 44% 12.1 mph NW19.5 kmh NW 15.9 mph25.6 kmh 29.78 in1008.5 mb 0.00 in0.0 mm 0.00 in0.0 mm 0.00 in0.0 mm
11:39 AM 81.1°F27.3°C 57.2°F14.0°C 44% 13.0 mph NW20.9 kmh NW 17.4 mph28.0 kmh 29.77 in1008.1 mb 0.00 in0.0 mm 0.00 in0.0 mm 0.00 in0.0 mm
11:44 AM 81.3°F27.4°C 56.7°F13.7°C 43% 11.4 mph NW18.3 kmh NW 17.4 mph28.0 kmh 29.77 in1008.1 mb 0.00 in0.0 mm 0.00 in0.0 mm 0.00 in0.0 mm
11:49 AM 81.3°F27.4°C 57.4°F14.1°C 44% 6.9 mph NW11.1 kmh NW 16.8 mph27.0 kmh 29.77 in1008.1 mb 0.00 in0.0 mm 0.00 in0.0 mm 0.00 in0.0 mm
11:54 AM 81.1°F27.3°C 57.2°F14.0°C 44% 6.0 mph SW9.7 kmh SW 14.5 mph23.3 kmh 29.77 in1008.1 mb 0.00 in0.0 mm 0.00 in0.0 mm 0.00 in0.0 mm
12:00 PM 81.0°F27.2°C 57.0°F13.9°C 44% 8.3 mph NW13.4 kmh NW 13.6 mph21.9 kmh 29.76 in1007.8 mb 0.00 in0.0 mm 0.00 in0.0 mm 0.00 in0.0 mm
12:05 PM 82.0°F27.8°C 57.4°F14.1°C 43% 10.7 mph NW17.2 kmh NW 15.9 mph25.6 kmh 29.76 in1007.8 mb 0.00 in0.0 mm 0.00 in0.0 mm 0.00 in0.0 mm
12:10 PM 81.9°F27.7°C 57.2°F14.0°C 43% 6.9 mph NW11.1 kmh NW 14.5 mph23.3 kmh 29.76 in1007.8 mb 0.00 in0.0 mm 0.00 in0.0 mm 0.00 in0.0 mm
12:15 PM 81.3°F27.4°C 56.7°F13.7°C 43% 7.6 mph NW12.2 kmh NW 22.1 mph35.6 kmh 29.76 in1007.8 mb 0.00 in0.0 mm 0.00 in0.0 mm 0.00 in0.0 mm
12:20 PM 82.4°F28.0°C 57.0°F13.9°C 42% 3.8 mph 6.1 kmh 17.4 mph28.0 kmh 29.75 in1007.5 mb 0.00 in0.0 mm 0.00 in0.0 mm 0.00 in0.0 mm
12:25 PM 83.3°F28.5°C 57.2°F14.0°C 41% 11.4 mph NW18.3 kmh NW 19.7 mph31.7 kmh 29.75 in1007.5 mb 0.00 in0.0 mm 0.00 in0.0 mm 0.00 in0.0 mm
12:31 PM 83.5°F28.6°C 57.4°F14.1°C 41% 9.8 mph NW15.8 kmh NW 16.8 mph27.0 kmh 29.75 in1007.5 mb 0.00 in0.0 mm 0.00 in0.0 mm 0.00 in0.0 mm
12:36 PM 84.6°F29.2°C 56.8°F13.8°C 39% 13.0 mph NW20.9 kmh NW 17.4 mph28.0 kmh 29.75 in1007.5 mb 0.00 in0.0 mm 0.00 in0.0 mm 0.00 in0.0 mm
12:41 PM 83.5°F28.6°C 57.4°F14.1°C 41% 12.1 mph 19.5 kmh 18.3 mph29.5 kmh 29.75 in1007.5 mb 0.00 in0.0 mm 0.00 in0.0 mm 0.00 in0.0 mm
12:46 PM 83.7°F28.7°C 57.4°F14.1°C 41% 7.6 mph NW12.2 kmh NW 22.1 mph35.6 kmh 29.74 in1007.1 mb 0.00 in0.0 mm 0.00 in0.0 mm 0.00 in0.0 mm
12:51 PM 83.7°F28.7°C 57.4°F14.1°C 41% 9.8 mph NW15.8 kmh NW 16.8 mph27.0 kmh 29.75 in1007.5 mb 0.00 in0.0 mm 0.00 in0.0 mm 0.00 in0.0 mm
12:56 PM 83.1°F28.4°C 57.0°F13.9°C 41% 9.8 mph WNW15.8 kmh WNW 19.7 mph31.7 kmh 29.74 in1007.1 mb 0.00 in0.0 mm 0.00 in0.0 mm 0.00 in0.0 mm
01:02 PM 84.0°F28.9°C 57.0°F13.9°C 40% 10.7 mph NW17.2 kmh NW 22.1 mph35.6 kmh 29.75 in1007.5 mb 0.00 in0.0 mm 0.00 in0.0 mm 0.00 in0.0 mm
01:07 PM 84.4°F29.1°C 55.9°F13.3°C 38% 15.2 mph NW24.5 kmh NW 22.1 mph35.6 kmh 29.75 in1007.5 mb 0.00 in0.0 mm 0.00 in0.0 mm 0.00 in0.0 mm
01:12 PM 83.5°F28.6°C 55.9°F13.3°C 39% 10.7 mph 17.2 kmh 22.8 mph36.7 kmh 29.75 in1007.5 mb 0.00 in0.0 mm 0.00 in0.0 mm 0.00 in0.0 mm
01:17 PM 83.1°F28.4°C 56.3°F13.5°C 40% 10.7 mph NW17.2 kmh NW 16.8 mph27.0 kmh 29.75 in1007.5 mb 0.00 in0.0 mm 0.00 in0.0 mm 0.00 in0.0 mm
01:22 PM 84.2°F29.0°C 55.8°F13.2°C 38% 9.8 mph NW15.8 kmh NW 19.7 mph31.7 kmh 29.74 in1007.1 mb 0.00 in0.0 mm 0.00 in0.0 mm 0.00 in0.0 mm
01:27 PM 84.2°F29.0°C 55.0°F12.8°C 37% 11.4 mph NW18.3 kmh NW 20.6 mph33.2 kmh 29.74 in1007.1 mb 0.00 in0.0 mm 0.00 in0.0 mm 0.00 in0.0 mm
01:33 PM 84.2°F29.0°C 55.0°F12.8°C 37% 16.8 mph NW27.0 kmh NW 22.8 mph36.7 kmh 29.74 in1007.1 mb 0.00 in0.0 mm 0.00 in0.0 mm 0.00 in0.0 mm
01:38 PM 84.6°F29.2°C 57.6°F14.2°C 40% 9.8 mph NW15.8 kmh NW 22.1 mph35.6 kmh 29.74 in1007.1 mb 0.00 in0.0 mm 0.00 in0.0 mm 0.00 in0.0 mm
01:43 PM 84.6°F29.2°C 52.3°F11.3°C 33% 12.1 mph NW19.5 kmh NW 27.3 mph43.9 kmh 29.74 in1007.1 mb 0.00 in0.0 mm 0.00 in0.0 mm 0.00 in0.0 mm
01:48 PM 84.6°F29.2°C 54.0°F12.2°C 35% 13.6 mph NW21.9 kmh NW 22.8 mph36.7 kmh 29.73 in1006.8 mb 0.00 in0.0 mm 0.00 in0.0 mm 0.00 in0.0 mm
01:53 PM 84.4°F29.1°C 54.5°F12.5°C 36% 8.3 mph NW13.4 kmh NW 20.6 mph33.2 kmh 29.73 in1006.8 mb 0.00 in0.0 mm 0.00 in0.0 mm 0.00 in0.0 mm
01:58 PM 84.7°F29.3°C 55.6°F13.1°C 37% 10.7 mph NW17.2 kmh NW 19.0 mph30.6 kmh 29.72 in1006.4 mb 0.00 in0.0 mm 0.00 in0.0 mm 0.00 in0.0 mm
02:04 PM 84.6°F29.2°C 55.4°F13.0°C 37% 9.8 mph NNW15.8 kmh NNW 19.7 mph31.7 kmh 29.72 in1006.4 mb 0.00 in0.0 mm 0.00 in0.0 mm 0.00 in0.0 mm
02:09 PM 84.9°F29.4°C 55.0°F12.8°C 36% 10.7 mph NW17.2 kmh NW 17.4 mph28.0 kmh 29.72 in1006.4 mb 0.00 in0.0 mm 0.00 in0.0 mm 0.00 in0.0 mm
02:14 PM 84.7°F29.3°C 54.1°F12.3°C 35% 9.2 mph NW14.8 kmh NW 21.3 mph34.3 kmh 29.72 in1006.4 mb 0.00 in0.0 mm 0.00 in0.0 mm 0.00 in0.0 mm
02:19 PM 85.1°F29.5°C 54.3°F12.4°C 35% 13.6 mph NW21.9 kmh NW 22.1 mph35.6 kmh 29.71 in1006.1 mb 0.00 in0.0 mm 0.00 in0.0 mm 0.00 in0.0 mm
02:24 PM 84.6°F29.2°C 54.0°F12.2°C 35% 13.0 mph NW20.9 kmh NW 26.6 mph42.8 kmh 29.72 in1006.4 mb 0.00 in0.0 mm 0.00 in0.0 mm 0.00 in0.0 mm
02:29 PM 84.2°F29.0°C 52.7°F11.5°C 34% 13.0 mph NW20.9 kmh NW 25.9 mph41.7 kmh 29.71 in1006.1 mb 0.00 in0.0 mm 0.00 in0.0 mm 0.00 in0.0 mm
02:35 PM 84.7°F29.3°C 53.2°F11.8°C 34% 15.2 mph NW24.5 kmh NW 22.8 mph36.7 kmh 29.71 in1006.1 mb 0.00 in0.0 mm 0.00 in0.0 mm 0.00 in0.0 mm
02:40 PM 85.1°F29.5°C 53.6°F12.0°C 34% 13.0 mph NW20.9 kmh NW 22.8 mph36.7 kmh 29.71 in1006.1 mb 0.00 in0.0 mm 0.00 in0.0 mm 0.00 in0.0 mm
02:45 PM 84.9°F29.4°C 54.1°F12.3°C 35% 10.7 mph NW17.2 kmh NW 20.6 mph33.2 kmh 29.70 in1005.8 mb 0.00 in0.0 mm 0.00 in0.0 mm 0.00 in0.0 mm
02:50 PM 85.6°F29.8°C 54.9°F12.7°C 35% 11.4 mph NW18.3 kmh NW 20.6 mph33.2 kmh 29.70 in1005.8 mb 0.00 in0.0 mm 0.00 in0.0 mm 0.00 in0.0 mm
02:55 PM 85.6°F29.8°C 54.9°F12.7°C 35% 9.8 mph 15.8 kmh 18.3 mph29.5 kmh 29.70 in1005.8 mb 0.00 in0.0 mm 0.00 in0.0 mm 0.00 in0.0 mm
03:00 PM 85.6°F29.8°C 54.9°F12.7°C 35% 17.4 mph NNW28.0 kmh NNW 23.5 mph37.8 kmh 29.70 in1005.8 mb 0.00 in0.0 mm 0.00 in0.0 mm 0.00 in0.0 mm
03:06 PM 85.1°F29.5°C 54.3°F12.4°C 35% 14.5 mph NW23.3 kmh NW 23.5 mph37.8 kmh 29.70 in1005.8 mb 0.00 in0.0 mm 0.00 in0.0 mm 0.00 in0.0 mm
03:11 PM 84.9°F29.4°C 54.1°F12.3°C 35% 14.5 mph NW23.3 kmh NW 24.4 mph39.3 kmh 29.69 in1005.4 mb 0.00 in0.0 mm 0.00 in0.0 mm 0.00 in0.0 mm
03:16 PM 84.9°F29.4°C 54.1°F12.3°C 35% 10.7 mph NW17.2 kmh NW 24.4 mph39.3 kmh 29.69 in1005.4 mb 0.00 in0.0 mm 0.00 in0.0 mm 0.00 in0.0 mm
03:21 PM 85.1°F29.5°C 54.3°F12.4°C 35% 14.5 mph NW23.3 kmh NW 22.8 mph36.7 kmh 29.69 in1005.4 mb 0.00 in0.0 mm 0.00 in0.0 mm 0.00 in0.0 mm
03:26 PM 85.3°F29.6°C 56.1°F13.4°C 37% 11.4 mph WNW18.3 kmh WNW 21.3 mph34.3 kmh 29.69 in1005.4 mb 0.00 in0.0 mm 0.00 in0.0 mm 0.00 in0.0 mm
03:31 PM 84.9°F29.4°C 55.8°F13.2°C 37% 14.5 mph NW23.3 kmh NW 20.6 mph33.2 kmh 29.68 in1005.1 mb 0.00 in0.0 mm 0.00 in0.0 mm 0.00 in0.0 mm
03:37 PM 84.9°F29.4°C 56.5°F13.6°C 38% 14.5 mph NW23.3 kmh NW 19.7 mph31.7 kmh 29.68 in1005.1 mb 0.00 in0.0 mm 0.00 in0.0 mm 0.00 in0.0 mm
03:42 PM 84.7°F29.3°C 57.0°F13.9°C 39% 8.3 mph NW13.4 kmh NW 23.5 mph37.8 kmh 29.69 in1005.4 mb 0.00 in0.0 mm 0.00 in0.0 mm 0.00 in0.0 mm
03:47 PM 85.1°F29.5°C 57.4°F14.1°C 39% 9.8 mph 15.8 kmh 20.6 mph33.2 kmh 29.68 in1005.1 mb 0.00 in0.0 mm 0.00 in0.0 mm 0.00 in0.0 mm
03:52 PM 84.7°F29.3°C 57.0°F13.9°C 39% 9.8 mph NW15.8 kmh NW 20.6 mph33.2 kmh 29.68 in1005.1 mb 0.00 in0.0 mm 0.00 in0.0 mm 0.00 in0.0 mm
03:57 PM 85.1°F29.5°C 57.4°F14.1°C 39% 10.7 mph NW17.2 kmh NW 16.8 mph27.0 kmh 29.68 in1005.1 mb 0.00 in0.0 mm 0.00 in0.0 mm 0.00 in0.0 mm
04:02 PM 84.6°F29.2°C 56.8°F13.8°C 39% 13.0 mph NW20.9 kmh NW 22.8 mph36.7 kmh 29.67 in1004.7 mb 0.00 in0.0 mm 0.00 in0.0 mm 0.00 in0.0 mm
04:08 PM 85.1°F29.5°C 56.7°F13.7°C 38% 11.4 mph NW18.3 kmh NW 18.3 mph29.5 kmh 29.67 in1004.7 mb 0.00 in0.0 mm 0.00 in0.0 mm 0.00 in0.0 mm
04:13 PM 84.7°F29.3°C 56.3°F13.5°C 38% 11.4 mph NW18.3 kmh NW 21.3 mph34.3 kmh 29.67 in1004.7 mb 0.00 in0.0 mm 0.00 in0.0 mm 0.00 in0.0 mm
04:18 PM 84.7°F29.3°C 57.0°F13.9°C 39% 11.4 mph NW18.3 kmh NW 21.3 mph34.3 kmh 29.67 in1004.7 mb 0.00 in0.0 mm 0.00 in0.0 mm 0.00 in0.0 mm
04:23 PM 84.9°F29.4°C 57.2°F14.0°C 39% 9.2 mph NW14.8 kmh NW 20.6 mph33.2 kmh 29.67 in1004.7 mb 0.00 in0.0 mm 0.00 in0.0 mm 0.00 in0.0 mm
04:28 PM 84.7°F29.3°C 56.3°F13.5°C 38% 9.2 mph NW14.8 kmh NW 18.3 mph29.5 kmh 29.67 in1004.7 mb 0.00 in0.0 mm 0.00 in0.0 mm 0.00 in0.0 mm
04:33 PM 84.7°F29.3°C 56.3°F13.5°C 38% 12.1 mph NW19.5 kmh NW 19.7 mph31.7 kmh 29.67 in1004.7 mb 0.00 in0.0 mm 0.00 in0.0 mm 0.00 in0.0 mm
04:39 PM 84.7°F29.3°C 57.0°F13.9°C 39% 9.2 mph NE14.8 kmh NE 20.6 mph33.2 kmh 29.67 in1004.7 mb 0.00 in0.0 mm 0.00 in0.0 mm 0.00 in0.0 mm
04:44 PM 84.7°F29.3°C 57.0°F13.9°C 39% 9.2 mph NW14.8 kmh NW 19.7 mph31.7 kmh 29.66 in1004.4 mb 0.00 in0.0 mm 0.00 in0.0 mm 0.00 in0.0 mm
04:49 PM 84.7°F29.3°C 56.3°F13.5°C 38% 9.8 mph NW15.8 kmh NW 21.3 mph34.3 kmh 29.66 in1004.4 mb 0.00 in0.0 mm 0.00 in0.0 mm 0.00 in0.0 mm
04:54 PM 84.7°F29.3°C 57.0°F13.9°C 39% 9.2 mph NE14.8 kmh NE 16.8 mph27.0 kmh 29.66 in1004.4 mb 0.00 in0.0 mm 0.00 in0.0 mm 0.00 in0.0 mm
04:59 PM 84.7°F29.3°C 57.7°F14.3°C 40% 11.4 mph NE18.3 kmh NE 18.3 mph29.5 kmh 29.66 in1004.4 mb 0.00 in0.0 mm 0.00 in0.0 mm 0.00 in0.0 mm
05:05 PM 84.7°F29.3°C 57.7°F14.3°C 40% 11.4 mph NW18.3 kmh NW 17.4 mph28.0 kmh 29.66 in1004.4 mb 0.00 in0.0 mm 0.00 in0.0 mm 0.00 in0.0 mm
05:10 PM 84.7°F29.3°C 57.7°F14.3°C 40% 10.7 mph 17.2 kmh 15.9 mph25.6 kmh 29.66 in1004.4 mb 0.00 in0.0 mm 0.00 in0.0 mm 0.00 in0.0 mm
05:15 PM 84.4°F29.1°C 57.4°F14.1°C 40% 7.6 mph W12.2 kmh W 19.0 mph30.6 kmh 29.66 in1004.4 mb 0.00 in0.0 mm 0.00 in0.0 mm 0.00 in0.0 mm
05:20 PM 84.6°F29.2°C 57.6°F14.2°C 40% 11.4 mph NW18.3 kmh NW 17.4 mph28.0 kmh 29.65 in1004.1 mb 0.00 in0.0 mm 0.00 in0.0 mm 0.00 in0.0 mm
05:25 PM 84.4°F29.1°C 57.4°F14.1°C 40% 7.6 mph 12.2 kmh 18.3 mph29.5 kmh 29.66 in1004.4 mb 0.00 in0.0 mm 0.00 in0.0 mm 0.00 in0.0 mm
05:30 PM 84.4°F29.1°C 57.4°F14.1°C 40% 9.2 mph WNW14.8 kmh WNW 17.4 mph28.0 kmh 29.66 in1004.4 mb 0.00 in0.0 mm 0.00 in0.0 mm 0.00 in0.0 mm
05:36 PM 84.2°F29.0°C 57.2°F14.0°C 40% 9.2 mph NW14.8 kmh NW 13.0 mph20.9 kmh 29.65 in1004.1 mb 0.00 in0.0 mm 0.00 in0.0 mm 0.00 in0.0 mm
05:41 PM 84.4°F29.1°C 57.4°F14.1°C 40% 9.2 mph NW14.8 kmh NW 15.2 mph24.5 kmh 29.66 in1004.4 mb 0.00 in0.0 mm 0.00 in0.0 mm 0.00 in0.0 mm
05:46 PM 84.0°F28.9°C 57.7°F14.3°C 41% 9.2 mph 14.8 kmh 15.2 mph24.5 kmh 29.65 in1004.1 mb 0.00 in0.0 mm 0.00 in0.0 mm 0.00 in0.0 mm
05:51 PM 83.7°F28.7°C 57.4°F14.1°C 41% 12.1 mph NW19.5 kmh NW 15.2 mph24.5 kmh 29.66 in1004.4 mb 0.00 in0.0 mm 0.00 in0.0 mm 0.00 in0.0 mm
05:56 PM 83.7°F28.7°C 58.1°F14.5°C 42% 6.9 mph NW11.1 kmh NW 14.5 mph23.3 kmh 29.65 in1004.1 mb 0.00 in0.0 mm 0.00 in0.0 mm 0.00 in0.0 mm
06:01 PM 83.7°F28.7°C 58.1°F14.5°C 42% 5.4 mph NW8.7 kmh NW 14.5 mph23.3 kmh 29.65 in1004.1 mb 0.00 in0.0 mm 0.00 in0.0 mm 0.00 in0.0 mm
06:07 PM 83.5°F28.6°C 57.9°F14.4°C 42% 6.9 mph NW11.1 kmh NW 13.6 mph21.9 kmh 29.65 in1004.1 mb 0.00 in0.0 mm 0.00 in0.0 mm 0.00 in0.0 mm
06:12 PM 83.5°F28.6°C 57.9°F14.4°C 42% 6.0 mph W9.7 kmh W 13.6 mph21.9 kmh 29.65 in1004.1 mb 0.00 in0.0 mm 0.00 in0.0 mm 0.00 in0.0 mm
06:17 PM 83.3°F28.5°C 57.7°F14.3°C 42% 7.6 mph NW12.2 kmh NW 13.6 mph21.9 kmh 29.65 in1004.1 mb 0.00 in0.0 mm 0.00 in0.0 mm 0.00 in0.0 mm
06:22 PM 83.1°F28.4°C 57.6°F14.2°C 42% 8.3 mph 13.4 kmh 13.6 mph21.9 kmh 29.65 in1004.1 mb 0.00 in0.0 mm 0.00 in0.0 mm 0.00 in0.0 mm
06:27 PM 82.9°F28.3°C 57.6°F14.2°C 42% 6.9 mph 11.1 kmh 12.1 mph19.5 kmh 29.65 in1004.1 mb 0.00 in0.0 mm 0.00 in0.0 mm 0.00 in0.0 mm
06:32 PM 82.6°F28.1°C 57.2°F14.0°C 42% 10.7 mph NW17.2 kmh NW 15.9 mph25.6 kmh 29.65 in1004.1 mb 0.00 in0.0 mm 0.00 in0.0 mm 0.00 in0.0 mm
06:38 PM 82.4°F28.0°C 57.0°F13.9°C 42% 6.0 mph NW9.7 kmh NW 13.0 mph20.9 kmh 29.65 in1004.1 mb 0.00 in0.0 mm 0.00 in0.0 mm 0.00 in0.0 mm
06:43 PM 82.0°F27.8°C 57.9°F14.4°C 44% 4.5 mph NW7.2 kmh NW 13.0 mph20.9 kmh 29.65 in1004.1 mb 0.00 in0.0 mm 0.00 in0.0 mm 0.00 in0.0 mm
06:48 PM 81.9°F27.7°C 57.7°F14.3°C 44% 6.0 mph NW9.7 kmh NW 10.7 mph17.2 kmh 29.65 in1004.1 mb 0.00 in0.0 mm 0.00 in0.0 mm 0.00 in0.0 mm
06:53 PM 81.5°F27.5°C 57.6°F14.2°C 44% 6.0 mph NW9.7 kmh NW 10.7 mph17.2 kmh 29.65 in1004.1 mb 0.00 in0.0 mm 0.00 in0.0 mm 0.00 in0.0 mm
06:58 PM 81.0°F27.2°C 57.0°F13.9°C 44% 5.4 mph NW8.7 kmh NW 11.4 mph18.3 kmh 29.65 in1004.1 mb 0.00 in0.0 mm 0.00 in0.0 mm 0.00 in0.0 mm
07:03 PM 80.6°F27.0°C 57.4°F14.1°C 45% 5.4 mph NW8.7 kmh NW 8.3 mph13.4 kmh 29.65 in1004.1 mb 0.00 in0.0 mm 0.00 in0.0 mm 0.00 in0.0 mm
07:09 PM 80.1°F26.7°C 56.8°F13.8°C 45% 3.8 mph NW6.1 kmh NW 9.8 mph15.8 kmh 29.65 in1004.1 mb 0.00 in0.0 mm 0.00 in0.0 mm 0.00 in0.0 mm
07:14 PM 79.7°F26.5°C 57.0°F13.9°C 46% 5.4 mph NW8.7 kmh NW 8.3 mph13.4 kmh 29.65 in1004.1 mb 0.00 in0.0 mm 0.00 in0.0 mm 0.00 in0.0 mm
07:19 PM 79.2°F26.2°C 56.7°F13.7°C 46% 3.1 mph NW5.0 kmh NW 6.0 mph9.7 kmh 29.65 in1004.1 mb 0.00 in0.0 mm 0.00 in0.0 mm 0.00 in0.0 mm
07:24 PM 78.3°F25.7°C 57.0°F13.9°C 48% 5.4 mph NW8.7 kmh NW 8.3 mph13.4 kmh 29.65 in1004.1 mb 0.00 in0.0 mm 0.00 in0.0 mm 0.00 in0.0 mm
07:29 PM 77.4°F25.2°C 56.7°F13.7°C 49% 3.8 mph 6.1 kmh 8.3 mph13.4 kmh 29.65 in1004.1 mb 0.00 in0.0 mm 0.00 in0.0 mm 0.00 in0.0 mm
07:34 PM 77.4°F25.2°C 56.7°F13.7°C 49% 3.8 mph NW6.1 kmh NW 8.3 mph13.4 kmh 29.64 in1003.7 mb 0.00 in0.0 mm 0.00 in0.0 mm 0.00 in0.0 mm
07:40 PM 77.0°F25.0°C 56.3°F13.5°C 49% 4.5 mph NW7.2 kmh NW 9.8 mph15.8 kmh 29.64 in1003.7 mb 0.00 in0.0 mm 0.00 in0.0 mm 0.00 in0.0 mm
07:45 PM 76.6°F24.8°C 56.7°F13.7°C 50% 3.8 mph 6.1 kmh 9.8 mph15.8 kmh 29.64 in1003.7 mb 0.00 in0.0 mm 0.00 in0.0 mm 0.00 in0.0 mm
07:50 PM 76.3°F24.6°C 56.3°F13.5°C 50% 9.2 mph NW14.8 kmh NW 11.4 mph18.3 kmh 29.64 in1003.7 mb 0.00 in0.0 mm 0.00 in0.0 mm 0.00 in0.0 mm
07:55 PM 76.1°F24.5°C 56.7°F13.7°C 51% 7.6 mph E12.2 kmh E 11.4 mph18.3 kmh 29.63 in1003.4 mb 0.00 in0.0 mm 0.00 in0.0 mm 0.00 in0.0 mm
08:00 PM 76.1°F24.5°C 56.7°F13.7°C 51% 6.0 mph NW9.7 kmh NW 9.8 mph15.8 kmh 29.63 in1003.4 mb 0.00 in0.0 mm 0.00 in0.0 mm 0.00 in0.0 mm
08:05 PM 75.9°F24.4°C 56.5°F13.6°C 51% 5.4 mph NNW8.7 kmh NNW 12.1 mph19.5 kmh 29.64 in1003.7 mb 0.00 in0.0 mm 0.00 in0.0 mm 0.00 in0.0 mm
08:11 PM 75.7°F24.3°C 56.3°F13.5°C 51% 4.5 mph NW7.2 kmh NW 9.2 mph14.8 kmh 29.64 in1003.7 mb 0.00 in0.0 mm 0.00 in0.0 mm 0.00 in0.0 mm
08:16 PM 75.6°F24.2°C 56.1°F13.4°C 51% 5.4 mph W8.7 kmh W 7.6 mph12.2 kmh 29.64 in1003.7 mb 0.00 in0.0 mm 0.00 in0.0 mm 0.00 in0.0 mm
08:21 PM 75.4°F24.1°C 55.9°F13.3°C 51% 3.1 mph W5.0 kmh W 7.6 mph12.2 kmh 29.65 in1004.1 mb 0.00 in0.0 mm 0.00 in0.0 mm 0.00 in0.0 mm
08:26 PM 75.4°F24.1°C 55.9°F13.3°C 51% 4.5 mph NW7.2 kmh NW 8.3 mph13.4 kmh 29.65 in1004.1 mb 0.00 in0.0 mm 0.00 in0.0 mm 0.00 in0.0 mm
08:31 PM 75.4°F24.1°C 55.9°F13.3°C 51% 3.8 mph NW6.1 kmh NW 9.8 mph15.8 kmh 29.66 in1004.4 mb 0.00 in0.0 mm 0.00 in0.0 mm 0.00 in0.0 mm
08:36 PM 75.2°F24.0°C 55.8°F13.2°C 51% 3.8 mph NW6.1 kmh NW 6.0 mph9.7 kmh 29.66 in1004.4 mb 0.00 in0.0 mm 0.00 in0.0 mm 0.00 in0.0 mm
08:42 PM 75.2°F24.0°C 55.8°F13.2°C 51% 3.8 mph WNW6.1 kmh WNW 6.9 mph11.1 kmh 29.66 in1004.4 mb 0.00 in0.0 mm 0.00 in0.0 mm 0.00 in0.0 mm
08:47 PM 74.8°F23.8°C 56.5°F13.6°C 53% 3.8 mph NW6.1 kmh NW 6.9 mph11.1 kmh 29.67 in1004.7 mb 0.00 in0.0 mm 0.00 in0.0 mm 0.00 in0.0 mm
08:52 PM 74.7°F23.7°C 56.5°F13.6°C 53% 3.1 mph 5.0 kmh 7.6 mph12.2 kmh 29.67 in1004.7 mb 0.00 in0.0 mm 0.00 in0.0 mm 0.00 in0.0 mm
08:57 PM 74.5°F23.6°C 56.3°F13.5°C 53% 3.8 mph NW6.1 kmh NW 8.3 mph13.4 kmh 29.67 in1004.7 mb 0.00 in0.0 mm 0.00 in0.0 mm 0.00 in0.0 mm
09:02 PM 74.3°F23.5°C 56.1°F13.4°C 53% 4.5 mph NW7.2 kmh NW 8.3 mph13.4 kmh 29.67 in1004.7 mb 0.00 in0.0 mm 0.00 in0.0 mm 0.00 in0.0 mm
09:07 PM 74.1°F23.4°C 56.5°F13.6°C 54% 2.2 mph NW3.5 kmh NW 6.0 mph9.7 kmh 29.68 in1005.1 mb 0.00 in0.0 mm 0.00 in0.0 mm 0.00 in0.0 mm
09:13 PM 73.9°F23.3°C 56.3°F13.5°C 54% 2.2 mph 3.5 kmh 6.0 mph9.7 kmh 29.68 in1005.1 mb 0.00 in0.0 mm 0.00 in0.0 mm 0.00 in0.0 mm
09:18 PM 73.9°F23.3°C 56.3°F13.5°C 54% 5.4 mph NW8.7 kmh NW 7.6 mph12.2 kmh 29.68 in1005.1 mb 0.00 in0.0 mm 0.00 in0.0 mm 0.00 in0.0 mm
09:23 PM 73.9°F23.3°C 56.3°F13.5°C 54% 5.4 mph NW8.7 kmh NW 8.3 mph13.4 kmh 29.69 in1005.4 mb 0.00 in0.0 mm 0.00 in0.0 mm 0.00 in0.0 mm
09:28 PM 73.9°F23.3°C 56.3°F13.5°C 54% 3.8 mph NW6.1 kmh NW 9.2 mph14.8 kmh 29.69 in1005.4 mb 0.00 in0.0 mm 0.00 in0.0 mm 0.00 in0.0 mm
09:33 PM 73.8°F23.2°C 56.1°F13.4°C 54% 4.5 mph NW7.2 kmh NW 9.2 mph14.8 kmh 29.69 in1005.4 mb 0.00 in0.0 mm 0.00 in0.0 mm 0.00 in0.0 mm
09:38 PM 73.8°F23.2°C 56.7°F13.7°C 55% 3.8 mph NW6.1 kmh NW 6.9 mph11.1 kmh 29.69 in1005.4 mb 0.00 in0.0 mm 0.00 in0.0 mm 0.00 in0.0 mm
09:44 PM 73.6°F23.1°C 56.5°F13.6°C 55% 5.4 mph NW8.7 kmh NW 7.6 mph12.2 kmh 29.69 in1005.4 mb 0.00 in0.0 mm 0.00 in0.0 mm 0.00 in0.0 mm
09:49 PM 73.2°F22.9°C 56.7°F13.7°C 56% 5.4 mph W8.7 kmh W 8.3 mph13.4 kmh 29.69 in1005.4 mb 0.00 in0.0 mm 0.00 in0.0 mm 0.00 in0.0 mm
09:54 PM 73.2°F22.9°C 56.7°F13.7°C 56% 5.4 mph NW8.7 kmh NW 7.6 mph12.2 kmh 29.69 in1005.4 mb 0.00 in0.0 mm 0.00 in0.0 mm 0.00 in0.0 mm
09:59 PM 73.0°F22.8°C 56.8°F13.8°C 57% 4.5 mph NW7.2 kmh NW 7.6 mph12.2 kmh 29.70 in1005.8 mb 0.00 in0.0 mm 0.00 in0.0 mm 0.00 in0.0 mm
10:04 PM 73.0°F22.8°C 56.8°F13.8°C 57% 5.4 mph NW8.7 kmh NW 7.6 mph12.2 kmh 29.70 in1005.8 mb 0.00 in0.0 mm 0.00 in0.0 mm 0.00 in0.0 mm
10:09 PM 72.9°F22.7°C 56.7°F13.7°C 57% 6.0 mph NW9.7 kmh NW 8.3 mph13.4 kmh 29.70 in1005.8 mb 0.00 in0.0 mm 0.00 in0.0 mm 0.00 in0.0 mm
10:15 PM 72.9°F22.7°C 56.7°F13.7°C 57% 3.8 mph W6.1 kmh W 6.9 mph11.1 kmh 29.70 in1005.8 mb 0.00 in0.0 mm 0.00 in0.0 mm 0.00 in0.0 mm
10:20 PM 72.7°F22.6°C 57.0°F13.9°C 58% 6.0 mph NW9.7 kmh NW 7.6 mph12.2 kmh 29.70 in1005.8 mb 0.00 in0.0 mm 0.00 in0.0 mm 0.00 in0.0 mm
10:25 PM 72.5°F22.5°C 56.8°F13.8°C 58% 3.8 mph W6.1 kmh W 7.6 mph12.2 kmh 29.70 in1005.8 mb 0.00 in0.0 mm 0.00 in0.0 mm 0.00 in0.0 mm
10:30 PM 72.5°F22.5°C 56.8°F13.8°C 58% 3.8 mph NW6.1 kmh NW 7.6 mph12.2 kmh 29.70 in1005.8 mb 0.00 in0.0 mm 0.00 in0.0 mm 0.00 in0.0 mm
10:35 PM 72.3°F22.4°C 56.7°F13.7°C 58% 3.8 mph ENE6.1 kmh ENE 9.2 mph14.8 kmh 29.70 in1005.8 mb 0.00 in0.0 mm 0.00 in0.0 mm 0.00 in0.0 mm
10:40 PM 72.3°F22.4°C 57.2°F14.0°C 59% 3.1 mph NW5.0 kmh NW 8.3 mph13.4 kmh 29.71 in1006.1 mb 0.00 in0.0 mm 0.00 in0.0 mm 0.00 in0.0 mm
10:46 PM 72.1°F22.3°C 57.0°F13.9°C 59% 2.2 mph NW3.5 kmh NW 6.0 mph9.7 kmh 29.71 in1006.1 mb 0.00 in0.0 mm 0.00 in0.0 mm 0.00 in0.0 mm
10:56 PM 72.1°F22.3°C 57.0°F13.9°C 59% 3.1 mph NW5.0 kmh NW 4.5 mph7.2 kmh 29.71 in1006.1 mb 0.00 in0.0 mm 0.00 in0.0 mm 0.00 in0.0 mm
11:01 PM 72.1°F22.3°C 57.6°F14.2°C 60% 3.1 mph NW5.0 kmh NW 5.4 mph8.7 kmh 29.71 in1006.1 mb 0.00 in0.0 mm 0.00 in0.0 mm 0.00 in0.0 mm
11:06 PM 72.1°F22.3°C 57.6°F14.2°C 60% 3.1 mph WSW5.0 kmh WSW 5.4 mph8.7 kmh 29.71 in1006.1 mb 0.00 in0.0 mm 0.00 in0.0 mm 0.00 in0.0 mm
11:12 PM 72.1°F22.3°C 57.6°F14.2°C 60% 1.6 mph W2.6 kmh W 5.4 mph8.7 kmh 29.71 in1006.1 mb 0.00 in0.0 mm 0.00 in0.0 mm 0.00 in0.0 mm
11:17 PM 72.1°F22.3°C 57.6°F14.2°C 60% 3.8 mph WSW6.1 kmh WSW 6.9 mph11.1 kmh 29.72 in1006.4 mb 0.00 in0.0 mm 0.00 in0.0 mm 0.00 in0.0 mm
11:22 PM 71.8°F22.1°C 57.2°F14.0°C 60% 7.6 mph W12.2 kmh W 15.2 mph24.5 kmh 29.73 in1006.8 mb 0.00 in0.0 mm 0.00 in0.0 mm 0.00 in0.0 mm
11:27 PM 71.6°F22.0°C 57.0°F13.9°C 60% 9.2 mph SW14.8 kmh SW 10.7 mph17.2 kmh 29.73 in1006.8 mb 0.00 in0.0 mm 0.00 in0.0 mm 0.00 in0.0 mm
11:32 PM 71.4°F21.9°C 56.8°F13.8°C 60% 4.5 mph NW7.2 kmh NW 10.7 mph17.2 kmh 29.73 in1006.8 mb 0.00 in0.0 mm 0.00 in0.0 mm 0.00 in0.0 mm
11:37 PM 71.4°F21.9°C 56.3°F13.5°C 59% 3.8 mph SW6.1 kmh SW 10.7 mph17.2 kmh 29.74 in1007.1 mb 0.00 in0.0 mm 0.00 in0.0 mm 0.00 in0.0 mm
11:43 PM 71.6°F22.0°C 56.5°F13.6°C 59% 5.4 mph SW8.7 kmh SW 9.2 mph14.8 kmh 29.74 in1007.1 mb 0.00 in0.0 mm 0.00 in0.0 mm 0.00 in0.0 mm
11:48 PM 71.6°F22.0°C 56.5°F13.6°C 59% 3.8 mph SSW6.1 kmh SSW 9.8 mph15.8 kmh 29.74 in1007.1 mb 0.00 in0.0 mm 0.00 in0.0 mm 0.00 in0.0 mm
11:53 PM 71.8°F22.1°C 56.7°F13.7°C 59% 3.8 mph W6.1 kmh W 6.9 mph11.1 kmh 29.74 in1007.1 mb 0.00 in0.0 mm 0.00 in0.0 mm 0.00 in0.0 mm
11:58 PM 71.8°F22.1°C 56.7°F13.7°C 59% 3.1 mph WSW5.0 kmh WSW 5.4 mph8.7 kmh 29.74 in1007.1 mb 0.00 in0.0 mm 0.00 in0.0 mm 0.00 in0.0 mm